Time;durP1;ratioP1;P1;durP2;ratioP2;P2;SDS_P1;SDS_P2;PMS_P1;PMS_P2;Temp;Humidity;BMP_temperature;BMP_pressure;BME280_temperature;BME280_humidity;BME280_pressure;Samples;Min_cycle;Max_cycle;Signal;HPM_P1;HPM_P2
2022/05/10 00:00:08;;;;;;;5.03;4.30;;;15.40;99.90;;;;;;4829114;29;20464;-64
2022/05/10 00:02:58;;;;;;;10.03;4.50;;;15.40;99.90;;;;;;4827852;29;20489;-66
2022/05/10 00:05:46;;;;;;;4.80;4.40;;;15.30;99.90;;;;;;4822252;29;20499;-65
2022/05/10 00:08:39;;;;;;;5.77;4.00;;;15.30;99.90;;;;;;4827733;29;20462;-65
2022/05/10 00:11:28;;;;;;;4.90;4.20;;;15.30;99.90;;;;;;4825162;29;20829;-64
2022/05/10 00:14:16;;;;;;;5.53;4.10;;;15.30;99.90;;;;;;4825825;29;20521;-64
2022/05/10 00:17:05;;;;;;;4.73;3.97;;;15.20;99.90;;;;;;4829820;29;20917;-64
2022/05/10 00:19:53;;;;;;;5.53;4.10;;;15.20;99.90;;;;;;4824173;29;20464;-65
2022/05/10 00:22:42;;;;;;;5.17;4.27;;;15.10;99.90;;;;;;4827461;29;20568;-65
2022/05/10 00:25:31;;;;;;;6.57;4.30;;;15.10;99.90;;;;;;4827383;29;20564;-64
2022/05/10 00:28:19;;;;;;;6.27;4.10;;;15.10;99.90;;;;;;4828604;29;20461;-64
2022/05/10 00:31:09;;;;;;;5.97;4.13;;;15.10;99.90;;;;;;4829456;29;20456;-65
2022/05/10 00:34:00;;;;;;;4.70;3.60;;;15.00;99.90;;;;;;4828005;29;20489;-65
2022/05/10 00:36:48;;;;;;;5.50;4.20;;;15.00;99.90;;;;;;4823972;29;20492;-64
2022/05/10 00:39:37;;;;;;;6.50;4.20;;;14.90;99.90;;;;;;4824574;29;20528;-65
2022/05/10 00:42:32;;;;;;;7.20;4.33;;;14.90;99.90;;;;;;4827191;29;21504;-65
2022/05/10 00:45:25;;;;;;;9.00;4.10;;;14.80;99.90;;;;;;4824384;29;20571;-64
2022/05/10 00:48:20;;;;;;;9.63;4.23;;;14.90;99.90;;;;;;4826538;29;20462;-65
2022/05/10 00:51:14;;;;;;;6.43;4.23;;;14.80;99.90;;;;;;4827089;29;21234;-64
2022/05/10 00:54:09;;;;;;;6.23;5.00;;;14.80;99.90;;;;;;4823942;29;20982;-65
2022/05/10 00:57:15;;;;;;;4.77;4.23;;;14.70;99.90;;;;;;4829939;29;20485;-65
2022/05/10 01:00:08;;;;;;;5.37;4.50;;;14.70;99.90;;;;;;4825297;29;20461;-65
2022/05/10 01:03:12;;;;;;;5.33;4.40;;;14.70;99.90;;;;;;4822895;29;20499;-64
2022/05/10 01:06:07;;;;;;;6.50;4.27;;;14.60;99.90;;;;;;4825745;29;20613;-65
2022/05/10 01:09:02;;;;;;;5.37;4.80;;;14.60;99.90;;;;;;4827376;29;21034;-65
2022/05/10 01:12:00;;;;;;;4.77;4.30;;;14.60;99.90;;;;;;4827769;29;20485;-65
2022/05/10 01:14:54;;;;;;;4.43;4.03;;;14.50;99.90;;;;;;4827739;29;20622;-65
2022/05/10 01:17:45;;;;;;;7.27;4.40;;;14.50;99.90;;;;;;4820998;29;20500;-65
2022/05/10 01:20:40;;;;;;;5.33;4.33;;;14.50;99.90;;;;;;4826681;29;20460;-65
2022/05/10 01:23:50;;;;;;;6.17;4.47;;;14.40;99.90;;;;;;4824894;29;21488;-65
2022/05/10 01:26:52;;;;;;;4.47;4.03;;;14.40;99.90;;;;;;4827713;29;21007;-65
2022/05/10 01:29:49;;;;;;;6.00;3.97;;;14.50;99.90;;;;;;4825445;29;20465;-65
2022/05/10 01:35:55;;;;;;;5.47;4.00;;;14.30;99.90;;;;;;4826848;29;20484;-66
2022/05/10 01:38:52;;;;;;;5.83;4.80;;;14.20;99.90;;;;;;4826280;29;20507;-65
2022/05/10 01:41:50;;;;;;;6.83;4.40;;;14.10;99.90;;;;;;4827743;29;20506;-65
2022/05/10 01:44:46;;;;;;;5.97;4.67;;;14.10;99.90;;;;;;4824043;29;20476;-66
2022/05/10 01:47:38;;;;;;;5.40;4.57;;;14.10;99.90;;;;;;4825249;29;20694;-65
2022/05/10 01:50:33;;;;;;;6.67;5.33;;;14.10;99.90;;;;;;4825709;29;20464;-65
2022/05/10 01:53:26;;;;;;;5.00;4.53;;;14.10;99.90;;;;;;4824806;29;20492;-65
2022/05/10 01:56:17;;;;;;;4.40;4.00;;;14.10;99.90;;;;;;4826749;29;21012;-66
2022/05/10 01:59:06;;;;;;;6.37;4.47;;;14.10;99.90;;;;;;4825517;29;20484;-65
2022/05/10 02:01:57;;;;;;;5.67;4.50;;;14.10;99.90;;;;;;4824315;29;20555;-66
2022/05/10 02:04:49;;;;;;;6.03;4.27;;;14.10;99.90;;;;;;4828708;29;20961;-66
2022/05/10 02:07:39;;;;;;;6.23;4.50;;;14.00;99.90;;;;;;4826444;29;20501;-66
2022/05/10 02:10:33;;;;;;;5.60;5.00;;;14.00;99.90;;;;;;4826150;29;20929;-65
2022/05/10 02:13:28;;;;;;;6.20;4.80;;;14.00;99.90;;;;;;4824833;29;20862;-64
2022/05/10 02:16:21;;;;;;;5.47;5.03;;;14.00;99.90;;;;;;4823568;29;20673;-64
2022/05/10 02:19:17;;;;;;;8.70;4.30;;;13.90;99.90;;;;;;4824623;29;20477;-65
2022/05/10 02:22:09;;;;;;;4.90;4.47;;;13.90;99.90;;;;;;4827874;29;20485;-65
2022/05/10 02:25:00;;;;;;;6.40;4.90;;;13.90;99.90;;;;;;4826932;29;20517;-65
2022/05/10 02:27:51;;;;;;;4.90;4.40;;;13.90;99.90;;;;;;4826879;29;20909;-65
2022/05/10 02:30:39;;;;;;;7.13;4.60;;;13.80;99.90;;;;;;4830979;29;20457;-65
2022/05/10 02:33:29;;;;;;;9.70;4.87;;;13.80;99.90;;;;;;4826497;29;20490;-65
2022/05/10 02:36:19;;;;;;;7.67;5.10;;;13.80;99.90;;;;;;4829477;29;20497;-65
2022/05/10 02:39:07;;;;;;;7.80;4.77;;;13.80;99.90;;;;;;4828635;29;21023;-66
2022/05/10 02:41:55;;;;;;;5.77;4.73;;;13.80;99.90;;;;;;4829259;29;20465;-65
2022/05/10 02:44:43;;;;;;;6.40;4.97;;;13.80;99.90;;;;;;4826120;29;20496;-66
2022/05/10 02:47:34;;;;;;;6.30;4.93;;;13.80;99.90;;;;;;4827004;29;20891;-66
2022/05/10 02:50:26;;;;;;;5.10;4.30;;;13.80;99.90;;;;;;4827730;29;20460;-66
2022/05/10 02:53:16;;;;;;;5.13;4.43;;;13.70;99.90;;;;;;4822198;29;20484;-65
2022/05/10 02:56:16;;;;;;;7.20;5.07;;;13.70;99.90;;;;;;4832214;29;20509;-64
2022/05/10 02:59:09;;;;;;;6.53;4.63;;;13.70;99.90;;;;;;4831394;29;20568;-66
2022/05/10 03:02:04;;;;;;;5.70;4.57;;;13.70;99.90;;;;;;4828032;29;20493;-66
2022/05/10 03:04:57;;;;;;;8.00;5.40;;;13.70;99.90;;;;;;4828355;29;20491;-65
2022/05/10 03:07:45;;;;;;;5.47;4.97;;;13.60;99.90;;;;;;4830637;29;20556;-65
2022/05/10 03:10:34;;;;;;;6.33;5.27;;;13.60;99.90;;;;;;4827620;29;21012;-65
2022/05/10 03:13:23;;;;;;;5.30;4.80;;;13.60;99.90;;;;;;4831654;29;20488;-66
2022/05/10 03:16:11;;;;;;;7.37;5.40;;;13.60;99.90;;;;;;4827751;29;20626;-66
2022/05/10 03:19:00;;;;;;;7.87;5.13;;;13.60;99.90;;;;;;4828138;29;20488;-65
2022/05/10 03:21:48;;;;;;;6.50;5.23;;;13.60;99.90;;;;;;4825716;29;20530;-66
2022/05/10 03:24:36;;;;;;;6.40;5.30;;;13.50;99.90;;;;;;4828083;29;20485;-65
2022/05/10 03:27:26;;;;;;;5.47;4.60;;;13.50;99.90;;;;;;4829657;29;20629;-65
2022/05/10 03:30:14;;;;;;;5.20;4.70;;;13.50;99.90;;;;;;4826497;29;20564;-65
2022/05/10 03:33:03;;;;;;;7.70;4.70;;;13.40;99.90;;;;;;4828262;29;20576;-65
2022/05/10 03:35:52;;;;;;;7.53;5.80;;;13.40;99.90;;;;;;4830823;29;20480;-65
2022/05/10 03:38:40;;;;;;;5.50;4.70;;;13.30;99.90;;;;;;4827867;29;20477;-66
2022/05/10 03:41:28;;;;;;;7.80;5.50;;;13.30;99.90;;;;;;4828511;29;20502;-65
2022/05/10 03:44:17;;;;;;;5.53;4.90;;;13.40;99.90;;;;;;4827021;29;20587;-65
2022/05/10 03:47:06;;;;;;;6.90;5.20;;;13.40;99.90;;;;;;4828198;29;20597;-66
2022/05/10 03:49:56;;;;;;;8.10;5.10;;;13.40;99.90;;;;;;4828353;29;20467;-65
2022/05/10 03:52:44;;;;;;;5.70;5.20;;;13.30;99.90;;;;;;4828752;29;20494;-66
2022/05/10 03:55:32;;;;;;;6.60;5.10;;;13.30;99.90;;;;;;4828383;29;20477;-66
2022/05/10 03:58:21;;;;;;;6.90;5.10;;;13.30;99.90;;;;;;4817447;29;20521;-65
2022/05/10 04:01:10;;;;;;;7.60;5.20;;;13.30;99.90;;;;;;4827562;29;20540;-66
2022/05/10 04:03:58;;;;;;;7.53;5.03;;;13.30;99.90;;;;;;4822704;29;20512;-65
2022/05/10 04:06:47;;;;;;;5.57;5.00;;;13.30;99.90;;;;;;4834421;29;20469;-65
2022/05/10 04:09:35;;;;;;;7.80;5.60;;;13.30;99.90;;;;;;4827542;29;20551;-66
2022/05/10 04:12:23;;;;;;;5.83;5.23;;;13.30;99.90;;;;;;4830067;29;20545;-65
2022/05/10 04:15:15;;;;;;;6.00;5.40;;;13.30;99.90;;;;;;4832033;29;20603;-65
2022/05/10 04:18:05;;;;;;;5.73;5.20;;;13.20;99.90;;;;;;4830984;29;20939;-65
2022/05/10 04:20:53;;;;;;;8.90;5.10;;;13.20;99.90;;;;;;4830234;29;20480;-66
2022/05/10 04:23:41;;;;;;;8.07;5.13;;;13.30;99.90;;;;;;4829593;29;21066;-65
2022/05/10 04:26:30;;;;;;;5.90;5.30;;;13.30;99.90;;;;;;4831086;29;20579;-65
2022/05/10 04:29:18;;;;;;;6.67;5.47;;;13.30;99.90;;;;;;4832248;29;20568;-65
2022/05/10 04:32:07;;;;;;;6.83;6.00;;;13.30;99.90;;;;;;4826195;29;20509;-65
2022/05/10 04:34:57;;;;;;;8.30;5.33;;;13.30;99.90;;;;;;4830313;29;20907;-65
2022/05/10 04:37:45;;;;;;;6.40;5.90;;;13.30;99.90;;;;;;4828695;29;20503;-65
2022/05/10 04:43:39;;;;;;;8.53;5.33;;;13.30;99.90;;;;;;4828251;29;20548;-65
2022/05/10 04:46:30;;;;;;;6.30;5.10;;;13.30;99.90;;;;;;4826088;29;20482;-65
2022/05/10 04:49:18;;;;;;;7.83;5.30;;;13.40;99.90;;;;;;4824313;29;20488;-65
2022/05/10 04:52:09;;;;;;;7.03;5.20;;;13.40;99.90;;;;;;4823802;29;20491;-65
2022/05/10 04:54:57;;;;;;;6.60;5.20;;;13.50;99.90;;;;;;4828052;29;20969;-66
2022/05/10 04:57:45;;;;;;;7.07;5.67;;;13.50;99.90;;;;;;4825552;29;20857;-65
2022/05/10 05:00:34;;;;;;;6.73;5.43;;;13.50;99.90;;;;;;4826190;29;20503;-65
2022/05/10 05:03:22;;;;;;;6.17;5.57;;;13.50;99.90;;;;;;4823395;29;20575;-65
2022/05/10 05:06:10;;;;;;;10.03;5.63;;;13.50;99.90;;;;;;4825753;29;20538;-67
2022/05/10 05:09:00;;;;;;;6.47;5.30;;;13.60;99.90;;;;;;4823579;29;20480;-67
2022/05/10 05:11:48;;;;;;;6.53;5.83;;;13.60;99.90;;;;;;4828457;29;21012;-66
2022/05/10 05:14:36;;;;;;;9.60;5.27;;;13.60;99.90;;;;;;4825364;29;20543;-67
2022/05/10 05:17:24;;;;;;;6.27;5.67;;;13.70;99.90;;;;;;4828417;29;20568;-67
2022/05/10 05:20:14;;;;;;;8.80;5.50;;;13.70;99.90;;;;;;4819977;29;20583;-66
2022/05/10 05:23:08;;;;;;;9.30;6.10;;;13.80;99.90;;;;;;4820948;29;20652;-66
2022/05/10 05:25:58;;;;;;;8.30;5.83;;;13.80;99.90;;;;;;4822261;29;21093;-66
2022/05/10 05:28:46;;;;;;;11.30;6.27;;;13.90;99.90;;;;;;4820330;29;20846;-67
2022/05/10 05:31:34;;;;;;;6.13;5.43;;;13.90;99.90;;;;;;4825357;29;20504;-66
2022/05/10 05:34:22;;;;;;;11.57;6.63;;;13.90;99.90;;;;;;4830578;29;20464;-65
2022/05/10 05:40:18;;;;;;;6.67;5.97;;;14.00;99.90;;;;;;4825288;29;20579;-65
2022/05/10 05:43:08;;;;;;;7.37;5.80;;;14.10;99.90;;;;;;4823852;29;21004;-65
2022/05/10 05:45:56;;;;;;;11.07;5.90;;;14.10;99.90;;;;;;4824319;29;20580;-65
2022/05/10 05:48:46;;;;;;;7.43;5.80;;;14.10;99.90;;;;;;4826655;29;21216;-65
2022/05/10 05:51:34;;;;;;;8.10;5.83;;;14.20;99.90;;;;;;4827823;29;20461;-65
2022/05/10 05:54:22;;;;;;;7.17;6.03;;;14.20;99.90;;;;;;4829229;29;20593;-65
2022/05/10 05:57:11;;;;;;;8.37;6.50;;;14.30;99.90;;;;;;4832082;29;20611;-65
2022/05/10 06:00:01;;;;;;;10.40;6.70;;;14.30;99.90;;;;;;4827280;29;20587;-64
2022/05/10 06:02:50;;;;;;;9.63;6.57;;;14.40;99.90;;;;;;4832767;29;20576;-67
2022/05/10 06:05:39;;;;;;;7.30;6.37;;;14.40;99.90;;;;;;4831065;29;20496;-65
2022/05/10 06:08:27;;;;;;;7.17;6.47;;;14.50;99.90;;;;;;4833925;29;20649;-65
2022/05/10 06:11:15;;;;;;;7.00;6.30;;;14.50;99.90;;;;;;4833925;29;20532;-65
2022/05/10 06:14:03;;;;;;;8.97;6.50;;;14.60;99.90;;;;;;4831319;29;21026;-65
2022/05/10 06:16:56;;;;;;;9.00;6.80;;;14.60;99.90;;;;;;4831328;29;20479;-65
2022/05/10 06:19:45;;;;;;;8.03;7.13;;;14.70;99.90;;;;;;4834769;29;20475;-65
2022/05/10 06:22:33;;;;;;;7.47;6.63;;;14.80;99.90;;;;;;4832540;29;20569;-64
2022/05/10 06:25:24;;;;;;;8.80;7.30;;;14.90;99.90;;;;;;4833386;29;20548;-64
2022/05/10 06:28:12;;;;;;;7.93;7.23;;;14.90;99.90;;;;;;4831462;29;20557;-64
2022/05/10 06:31:01;;;;;;;9.13;7.03;;;15.00;99.90;;;;;;4832041;29;20468;-65
2022/05/10 06:33:51;;;;;;;12.10;6.90;;;15.00;99.90;;;;;;4832681;29;20476;-64
2022/05/10 06:36:40;;;;;;;11.03;7.47;;;15.10;99.90;;;;;;4834570;29;20893;-65
2022/05/10 06:39:28;;;;;;;11.43;7.13;;;15.20;99.90;;;;;;4833241;29;20586;-65
2022/05/10 06:42:22;;;;;;;7.57;6.67;;;15.30;99.90;;;;;;4831489;29;20583;-66
2022/05/10 06:45:15;;;;;;;8.10;6.93;;;15.40;99.90;;;;;;4832518;29;20569;-65
2022/05/10 06:48:03;;;;;;;10.17;6.80;;;15.50;99.90;;;;;;4829690;29;20575;-65
2022/05/10 06:50:53;;;;;;;9.27;6.97;;;15.60;99.90;;;;;;4832536;29;20490;-66
2022/05/10 06:53:42;;;;;;;7.43;6.70;;;15.70;99.90;;;;;;4831626;29;20491;-65
2022/05/10 06:56:30;;;;;;;8.57;6.40;;;15.70;99.90;;;;;;4833113;29;20524;-66
2022/05/10 06:59:18;;;;;;;10.13;6.73;;;15.80;99.90;;;;;;4828478;29;20472;-66
2022/05/10 07:02:06;;;;;;;7.60;6.50;;;15.90;99.90;;;;;;4827920;29;21028;-66
2022/05/10 07:04:55;;;;;;;8.57;7.00;;;15.90;99.90;;;;;;4833699;29;20552;-66
2022/05/10 07:07:45;;;;;;;8.77;7.70;;;16.00;99.90;;;;;;4833491;29;20457;-65
2022/05/10 07:10:33;;;;;;;11.33;7.37;;;16.00;99.90;;;;;;4833453;29;20581;-65
2022/05/10 07:13:25;;;;;;;8.87;6.53;;;16.10;99.90;;;;;;4826664;29;20587;-66
2022/05/10 07:16:13;;;;;;;10.50;7.40;;;16.20;99.90;;;;;;4832842;29;20485;-65
2022/05/10 07:19:02;;;;;;;7.70;6.47;;;16.30;99.90;;;;;;4828574;29;20890;-66
2022/05/10 07:21:50;;;;;;;9.00;7.57;;;16.30;99.90;;;;;;4829135;29;21096;-65
2022/05/10 07:24:40;;;;;;;7.77;7.03;;;16.50;99.90;;;;;;4830704;29;21442;-65
2022/05/10 07:27:28;;;;;;;8.80;6.90;;;16.60;99.90;;;;;;4831050;29;20482;-66
2022/05/10 07:30:17;;;;;;;7.77;6.93;;;16.70;99.90;;;;;;4830441;29;20553;-65
2022/05/10 07:33:06;;;;;;;9.00;7.63;;;16.90;99.90;;;;;;4830128;29;20488;-67
2022/05/10 07:39:00;;;;;;;7.27;6.57;;;17.10;99.90;;;;;;4829992;29;20496;-65
2022/05/10 07:41:51;;;;;;;7.13;6.47;;;17.10;99.90;;;;;;4830049;29;20499;-66
2022/05/10 07:44:40;;;;;;;8.47;6.50;;;17.20;99.90;;;;;;4832070;29;20837;-66
2022/05/10 07:47:28;;;;;;;8.57;6.83;;;17.30;99.90;;;;;;4832981;29;20462;-65
2022/05/10 07:50:16;;;;;;;16.33;6.80;;;17.50;99.90;;;;;;4829694;29;20464;-66
2022/05/10 07:53:07;;;;;;;9.30;6.53;;;17.60;99.90;;;;;;4829363;29;20485;-66
2022/05/10 07:55:55;;;;;;;8.23;6.10;;;17.60;99.90;;;;;;4829205;29;20943;-66
2022/05/10 07:58:44;;;;;;;9.00;6.17;;;17.70;99.90;;;;;;4828984;29;20550;-66
2022/05/10 08:01:32;;;;;;;8.30;7.10;;;17.80;99.90;;;;;;4829104;29;20485;-63
2022/05/10 08:04:21;;;;;;;8.10;7.40;;;17.90;99.90;;;;;;4829335;29;21196;-67
2022/05/10 08:07:09;;;;;;;9.17;6.87;;;18.00;99.90;;;;;;4830161;29;20476;-65
2022/05/10 08:09:57;;;;;;;12.60;7.63;;;18.00;99.90;;;;;;4827619;29;20475;-66
2022/05/10 08:12:46;;;;;;;11.77;6.77;;;18.10;99.90;;;;;;4829936;29;20530;-65
2022/05/10 08:15:35;;;;;;;9.70;6.97;;;18.20;99.90;;;;;;4829148;29;20476;-65
2022/05/10 08:18:25;;;;;;;8.20;6.87;;;18.30;99.90;;;;;;4830326;29;20563;-65
2022/05/10 08:21:14;;;;;;;7.57;6.70;;;18.30;99.90;;;;;;4830911;29;20996;-65
2022/05/10 08:24:02;;;;;;;11.63;6.23;;;18.40;99.90;;;;;;4828496;29;20533;-66
2022/05/10 08:26:50;;;;;;;8.33;6.23;;;18.50;99.90;;;;;;4829274;29;20511;-66
2022/05/10 08:29:39;;;;;;;10.17;6.57;;;18.60;99.90;;;;;;4830462;29;20461;-66
2022/05/10 08:32:28;;;;;;;12.57;6.63;;;18.70;99.90;;;;;;4827438;29;20906;-66
2022/05/10 08:35:16;;;;;;;9.70;7.67;;;18.80;99.90;;;;;;4829503;29;20519;-66
2022/05/10 08:38:04;;;;;;;9.43;7.07;;;18.90;99.90;;;;;;4831121;29;20604;-66
2022/05/10 08:40:57;;;;;;;8.40;6.13;;;19.00;99.90;;;;;;4830237;29;21077;-69
2022/05/10 08:43:48;;;;;;;11.40;7.03;;;19.10;99.90;;;;;;4829426;29;20527;-66
2022/05/10 08:46:41;;;;;;;6.97;6.37;;;19.20;99.90;;;;;;4830361;29;20541;-66
2022/05/10 08:49:35;;;;;;;9.97;7.43;;;19.30;99.90;;;;;;4828742;29;20605;-67
2022/05/10 08:52:28;;;;;;;7.77;7.00;;;19.40;99.90;;;;;;4828362;29;20485;-67
2022/05/10 08:55:21;;;;;;;8.30;6.87;;;19.50;99.90;;;;;;4827553;29;20484;-66
2022/05/10 08:58:28;;;;;;;8.07;7.27;;;19.50;99.90;;;;;;4828976;29;20572;-66
2022/05/10 09:01:42;;;;;;;8.13;6.00;;;19.60;99.90;;;;;;4826601;29;20583;-67
2022/05/10 09:04:46;;;;;;;7.97;7.17;;;19.60;99.90;;;;;;4826966;29;20468;-66
2022/05/10 09:07:41;;;;;;;8.83;7.83;;;19.70;99.90;;;;;;4827486;29;20490;-67
2022/05/10 09:10:38;;;;;;;9.53;7.40;;;19.80;99.90;;;;;;4830002;29;20521;-67
2022/05/10 09:13:26;;;;;;;7.60;6.97;;;19.90;99.90;;;;;;4828180;29;20512;-67
2022/05/10 09:16:15;;;;;;;8.03;6.50;;;20.00;99.90;;;;;;4827779;29;20583;-66
2022/05/10 09:19:03;;;;;;;6.90;6.40;;;20.10;99.90;;;;;;4828745;29;20461;-67
2022/05/10 09:21:55;;;;;;;7.43;6.70;;;20.10;99.90;;;;;;4828472;29;20568;-67
2022/05/10 09:24:49;;;;;;;7.47;6.87;;;20.30;99.90;;;;;;4827607;29;20493;-67
2022/05/10 09:27:38;;;;;;;7.90;7.07;;;20.40;99.90;;;;;;4827053;29;20529;-67
2022/05/10 09:30:30;;;;;;;7.80;6.83;;;20.50;99.90;;;;;;4829539;29;20525;-67
2022/05/10 09:36:30;;;;;;;7.03;6.40;;;20.60;99.90;;;;;;4827078;29;20477;-67
2022/05/10 09:39:32;;;;;;;7.33;5.97;;;20.70;99.90;;;;;;4829775;29;20456;-66
2022/05/10 09:42:31;;;;;;;6.57;5.90;;;20.70;99.90;;;;;;4830103;29;20986;-67
2022/05/10 09:45:22;;;;;;;6.23;5.67;;;20.90;99.90;;;;;;4828064;29;20488;-67
2022/05/10 09:48:16;;;;;;;8.20;5.70;;;21.00;99.90;;;;;;4829686;29;20714;-67
2022/05/10 09:51:23;;;;;;;7.70;6.03;;;21.20;99.90;;;;;;4828931;29;20470;-67
2022/05/10 09:54:18;;;;;;;5.70;5.13;;;21.40;99.90;;;;;;4828395;29;20480;-67
2022/05/10 09:57:13;;;;;;;6.37;5.40;;;21.40;99.90;;;;;;4829917;29;20480;-67
2022/05/10 10:00:01;;;;;;;5.10;4.63;;;21.50;99.90;;;;;;4827723;29;20472;-67
2022/05/10 10:02:57;;;;;;;5.13;4.67;;;21.50;99.90;;;;;;4830170;29;20484;-67
2022/05/10 10:05:45;;;;;;;5.53;5.03;;;21.70;99.90;;;;;;4829135;29;20870;-67
2022/05/10 10:08:42;;;;;;;4.87;4.47;;;21.70;99.90;;;;;;4826210;29;20460;-66
2022/05/10 10:11:33;;;;;;;5.10;4.60;;;21.90;99.90;;;;;;4826177;29;20547;-66
2022/05/10 10:14:34;;;;;;;6.90;4.33;;;22.00;99.90;;;;;;4828851;29;22025;-66
2022/05/10 10:17:25;;;;;;;5.00;4.50;;;22.20;99.90;;;;;;4825710;29;20560;-66
2022/05/10 10:20:23;;;;;;;9.70;5.07;;;22.20;99.90;;;;;;4827582;29;20504;-66
2022/05/10 10:23:22;;;;;;;5.20;4.80;;;22.30;99.90;;;;;;4827002;29;20978;-66
2022/05/10 10:26:17;;;;;;;5.53;4.60;;;22.30;99.90;;;;;;4827925;29;20536;-66
2022/05/10 10:29:13;;;;;;;7.30;5.00;;;22.40;99.90;;;;;;4826289;29;20969;-67
2022/05/10 10:32:09;;;;;;;5.23;4.73;;;22.60;99.90;;;;;;4825479;29;20849;-66
2022/05/10 10:35:04;;;;;;;5.23;4.60;;;22.70;99.90;;;;;;4827780;29;20539;-66
2022/05/10 10:37:56;;;;;;;4.80;4.40;;;22.70;99.90;;;;;;4830219;29;20470;-66
2022/05/10 10:40:48;;;;;;;6.10;4.43;;;22.80;99.90;;;;;;4827510;29;20978;-66
2022/05/10 10:43:45;;;;;;;4.63;4.10;;;22.90;99.90;;;;;;4826774;29;20481;-66
2022/05/10 10:46:39;;;;;;;3.87;3.60;;;23.00;99.90;;;;;;4824661;29;20493;-66
2022/05/10 10:49:33;;;;;;;6.63;3.63;;;23.10;99.90;;;;;;4829807;29;20464;-67
2022/05/10 10:52:23;;;;;;;4.80;3.50;;;23.20;99.90;;;;;;4830441;29;20544;-66
2022/05/10 10:55:11;;;;;;;3.20;3.00;;;23.30;99.90;;;;;;4831899;29;20496;-66
2022/05/10 10:58:07;;;;;;;8.73;3.60;;;23.50;99.90;;;;;;4830599;29;20477;-66
2022/05/10 11:01:04;;;;;;;7.60;3.40;;;23.60;99.90;;;;;;4831913;29;20533;-67
2022/05/10 11:04:06;;;;;;;3.87;3.57;;;23.60;99.90;;;;;;4828738;29;20599;-66
2022/05/10 11:06:56;;;;;;;4.23;3.60;;;23.70;99.90;;;;;;4820979;29;20455;-67
2022/05/10 11:09:51;;;;;;;3.63;3.33;;;23.70;99.90;;;;;;4829708;29;20507;-66
2022/05/10 11:12:53;;;;;;;3.87;3.30;;;23.80;99.90;;;;;;4831336;29;21060;-66
2022/05/10 11:15:50;;;;;;;5.70;3.20;;;23.80;99.90;;;;;;4830061;29;20477;-66
2022/05/10 11:18:53;;;;;;;4.60;3.40;;;23.90;99.90;;;;;;4824353;29;20869;-67
2022/05/10 11:21:50;;;;;;;4.83;3.90;;;23.90;99.90;;;;;;4826132;29;20549;-67
2022/05/10 11:24:51;;;;;;;4.87;3.57;;;24.00;99.90;;;;;;4825111;29;20519;-67
2022/05/10 11:27:55;;;;;;;3.57;3.27;;;24.10;99.90;;;;;;4825137;29;20485;-68
2022/05/10 11:30:50;;;;;;;4.30;3.40;;;24.20;99.90;;;;;;4827119;29;20472;-68
2022/05/10 11:33:50;;;;;;;6.13;3.77;;;24.20;99.90;;;;;;4818822;29;20486;-68
2022/05/10 11:36:41;;;;;;;4.70;3.87;;;24.20;99.90;;;;;;4828701;29;20456;-67
2022/05/10 11:40:17;;;;;;;6.50;3.23;;;24.20;99.90;;;;;;4827266;29;20566;-67
2022/05/10 11:43:40;;;;;;;4.60;4.20;;;24.30;99.90;;;;;;4825873;29;20481;-67
2022/05/10 11:47:00;;;;;;;4.10;3.57;;;24.30;99.90;;;;;;4824518;29;20473;-67
2022/05/10 11:50:10;;;;;;;6.27;4.00;;;24.40;99.90;;;;;;4830511;29;20548;-67
2022/05/10 11:53:17;;;;;;;5.23;3.70;;;24.40;99.90;;;;;;4830279;29;20465;-67
2022/05/10 11:56:09;;;;;;;3.70;3.07;;;24.50;99.90;;;;;;4828490;29;20524;-67
2022/05/10 11:58:58;;;;;;;3.57;3.27;;;24.50;99.90;;;;;;4825533;29;21112;-67
2022/05/10 12:01:48;;;;;;;3.77;3.47;;;24.50;99.90;;;;;;4825370;29;20478;-67
2022/05/10 12:04:39;;;;;;;5.30;3.70;;;24.50;99.90;;;;;;4822516;29;20528;-67
2022/05/10 12:07:36;;;;;;;4.17;3.80;;;24.60;99.90;;;;;;4828427;29;20469;-67
2022/05/10 12:10:35;;;;;;;6.60;4.17;;;24.50;99.90;;;;;;4829501;29;20851;-67
2022/05/10 12:23:19;;;;;;;4.30;3.90;;;24.60;99.90;;;;;;4822286;29;20492;-68
2022/05/10 12:26:07;;;;;;;4.93;4.43;;;24.70;99.90;;;;;;4825701;29;20585;-67
2022/05/10 12:28:57;;;;;;;5.00;4.10;;;24.70;99.90;;;;;;4821387;29;20467;-67
2022/05/10 12:31:57;;;;;;;4.70;4.23;;;24.80;99.90;;;;;;4822267;29;20545;-67
2022/05/10 12:34:49;;;;;;;5.73;5.13;;;24.80;99.90;;;;;;4824929;29;20650;-67
2022/05/10 12:38:00;;;;;;;5.10;4.30;;;24.70;99.90;;;;;;4823383;29;20472;-68
2022/05/10 12:41:02;;;;;;;5.57;4.30;;;24.70;99.90;;;;;;4825445;29;20465;-67
2022/05/10 12:44:20;;;;;;;5.63;4.47;;;24.70;99.90;;;;;;4827972;29;20584;-68
2022/05/10 12:47:20;;;;;;;5.50;5.10;;;24.60;99.90;;;;;;4828700;29;20604;-68
2022/05/10 12:50:29;;;;;;;5.47;4.97;;;24.60;99.90;;;;;;4826479;29;20478;-68
2022/05/10 12:53:24;;;;;;;5.67;5.17;;;24.50;99.90;;;;;;4819861;29;24436;-67
2022/05/10 12:56:25;;;;;;;5.47;5.00;;;24.40;99.90;;;;;;4820278;29;20529;-66
2022/05/10 12:59:19;;;;;;;8.30;5.10;;;24.30;99.90;;;;;;4827979;29;20495;-66
2022/05/10 13:02:12;;;;;;;5.80;5.27;;;24.20;99.90;;;;;;4814404;29;20477;-66
2022/05/10 13:05:05;;;;;;;6.33;5.90;;;24.10;99.90;;;;;;4824442;29;20500;-66
2022/05/10 13:08:19;;;;;;;6.80;6.20;;;24.10;99.90;;;;;;4824594;29;20460;-67
2022/05/10 13:11:07;;;;;;;7.20;5.37;;;24.10;99.90;;;;;;4828909;29;20537;-67
2022/05/10 13:14:00;;;;;;;6.00;5.50;;;24.10;99.90;;;;;;4827526;29;20480;-67
2022/05/10 13:16:51;;;;;;;7.10;6.50;;;24.10;99.90;;;;;;4827729;29;20465;-66
2022/05/10 13:19:43;;;;;;;6.93;6.30;;;24.10;99.90;;;;;;4827196;29;20466;-67
2022/05/10 13:22:32;;;;;;;6.90;6.30;;;24.00;99.90;;;;;;4827457;29;20616;-67
2022/05/10 13:25:30;;;;;;;6.10;5.60;;;24.10;99.90;;;;;;4820233;29;20844;-65
2022/05/10 13:28:21;;;;;;;6.40;5.80;;;24.10;99.90;;;;;;4827152;29;20508;-65
2022/05/10 13:31:17;;;;;;;6.10;5.70;;;24.00;99.90;;;;;;4826911;29;20996;-66
2022/05/10 13:34:12;;;;;;;6.40;5.83;;;24.00;99.90;;;;;;4825952;29;20856;-66
2022/05/10 13:37:00;;;;;;;7.00;6.40;;;23.90;99.90;;;;;;4825099;29;20568;-65
2022/05/10 13:39:48;;;;;;;6.87;6.00;;;23.90;99.90;;;;;;4828790;29;20539;-65
2022/05/10 13:42:41;;;;;;;6.30;5.80;;;23.90;99.90;;;;;;4827168;29;20568;-65
2022/05/10 13:45:29;;;;;;;6.47;5.97;;;23.80;99.90;;;;;;4826773;29;20481;-66
2022/05/10 13:48:23;;;;;;;7.60;5.60;;;23.80;99.90;;;;;;4829161;29;20471;-65
2022/05/10 13:51:19;;;;;;;7.10;5.80;;;23.70;99.90;;;;;;4822631;29;20483;-66
2022/05/10 13:54:20;;;;;;;6.90;6.37;;;23.70;99.90;;;;;;4817976;29;20476;-66
2022/05/10 13:57:14;;;;;;;6.63;6.10;;;23.60;99.90;;;;;;4826208;29;20582;-66
2022/05/10 14:00:16;;;;;;;7.23;6.50;;;23.60;99.90;;;;;;4825034;29;20498;-66
2022/05/10 14:03:09;;;;;;;6.40;5.90;;;23.50;99.90;;;;;;4824161;29;20522;-65
2022/05/10 14:06:03;;;;;;;6.57;6.00;;;23.40;99.90;;;;;;4823270;29;20501;-67
2022/05/10 14:08:54;;;;;;;7.40;6.60;;;23.30;99.90;;;;;;4823059;29;20573;-65
2022/05/10 14:11:43;;;;;;;7.60;7.10;;;23.20;99.90;;;;;;4821020;29;20480;-66
2022/05/10 14:14:34;;;;;;;9.00;8.10;;;23.00;99.90;;;;;;4824462;29;20555;-65
2022/05/10 14:17:22;;;;;;;12.77;10.03;;;22.60;99.90;;;;;;4820768;29;20537;-65
2022/05/10 14:20:20;;;;;;;10.17;9.33;;;22.20;99.90;;;;;;4823734;29;20832;-65
2022/05/10 14:23:14;;;;;;;11.20;10.20;;;21.70;99.90;;;;;;4828260;29;20481;-65
2022/05/10 14:26:26;;;;;;;10.67;9.83;;;21.60;99.90;;;;;;4829625;29;20500;-65
2022/05/10 14:29:19;;;;;;;10.67;9.70;;;21.60;99.90;;;;;;4826760;29;20514;-64
2022/05/10 14:32:11;;;;;;;12.13;11.30;;;21.50;99.90;;;;;;4826541;29;20563;-65
2022/05/10 14:35:01;;;;;;;13.23;11.60;;;21.20;99.90;;;;;;4825672;29;20491;-65
2022/05/10 14:37:51;;;;;;;10.87;9.97;;;21.00;99.90;;;;;;4828927;29;20465;-64
2022/05/10 14:40:42;;;;;;;11.30;10.40;;;21.00;99.90;;;;;;4829978;29;22265;-66
2022/05/10 14:43:36;;;;;;;12.53;11.60;;;20.90;99.90;;;;;;4828555;29;20500;-65
2022/05/10 14:46:31;;;;;;;12.50;11.10;;;20.90;99.90;;;;;;4825714;29;20632;-64
2022/05/10 14:49:36;;;;;;;13.37;12.27;;;20.90;99.90;;;;;;4823765;29;20670;-64
2022/05/10 14:52:26;;;;;;;13.33;12.23;;;20.80;99.90;;;;;;4826982;29;20598;-65
2022/05/10 14:55:33;;;;;;;14.10;13.00;;;20.70;99.90;;;;;;4830566;29;20480;-66
2022/05/10 14:58:25;;;;;;;13.07;12.07;;;20.60;99.90;;;;;;4829144;29;20620;-65
2022/05/10 15:01:33;;;;;;;14.00;12.77;;;20.60;99.90;;;;;;4823672;29;20480;-66
2022/05/10 15:04:33;;;;;;;13.33;12.33;;;20.60;99.90;;;;;;4821538;29;20492;-66
2022/05/10 15:07:22;;;;;;;13.63;12.53;;;20.50;99.90;;;;;;4823065;29;20895;-66
2022/05/10 15:10:10;;;;;;;13.30;12.30;;;20.50;99.90;;;;;;4826007;29;20465;-66
2022/05/10 15:13:05;;;;;;;14.57;13.37;;;20.50;99.90;;;;;;4823371;29;20567;-66
2022/05/10 15:15:55;;;;;;;14.00;12.70;;;20.40;99.90;;;;;;4821315;29;21331;-65
2022/05/10 15:19:00;;;;;;;15.40;13.90;;;20.40;99.90;;;;;;4815203;29;20505;-65
2022/05/10 15:21:49;;;;;;;14.30;12.37;;;20.40;99.90;;;;;;4821763;29;20470;-67